Time;durP1;ratioP1;P1;durP2;ratioP2;P2;SDS_P1;SDS_P2;PMS_P1;PMS_P2;Temp;Humidity;BMP_temperature;BMP_pressure;BME280_temperature;BME280_humidity;BME280_pressure;Samples;Min_cycle;Max_cycle;Signal;HPM_P1;HPM_P2
2022/01/25 00:08:42;;;;;;;8.50;2.50;;;2.20;99.90;;;;;;6216723;23;20020;-65
2022/01/25 00:25:03;;;;;;;6.68;2.55;;;2.10;99.90;;;;;;6216739;23;20087;-65
2022/01/25 00:27:42;;;;;;;9.55;2.50;;;2.10;99.90;;;;;;6216496;23;20051;-66
2022/01/25 00:30:42;;;;;;;7.68;2.30;;;2.10;99.90;;;;;;6192939;23;20469;-66
2022/01/25 00:33:11;;;;;;;11.15;3.08;;;2.10;99.90;;;;;;6216520;23;20013;-66
2022/01/25 00:35:38;;;;;;;5.05;2.28;;;2.10;99.90;;;;;;6190214;23;20058;-66
2022/01/25 00:38:04;;;;;;;4.75;2.30;;;2.10;99.90;;;;;;6216989;23;20012;-66
2022/01/25 00:40:31;;;;;;;5.78;2.70;;;2.10;99.90;;;;;;6216924;23;20095;-66
2022/01/25 00:42:57;;;;;;;5.70;2.10;;;2.00;99.90;;;;;;6216390;23;20015;-66
2022/01/25 00:45:28;;;;;;;10.82;2.60;;;2.00;99.90;;;;;;6216405;23;20096;-65
2022/01/25 00:47:55;;;;;;;3.65;2.00;;;2.00;99.90;;;;;;6216912;23;20005;-65
2022/01/25 00:50:22;;;;;;;9.38;3.25;;;2.00;99.90;;;;;;6189965;23;20020;-65
2022/01/25 00:55:16;;;;;;;4.53;2.25;;;2.00;99.90;;;;;;6216531;23;20075;-65
2022/01/25 00:57:43;;;;;;;9.55;3.00;;;2.00;99.90;;;;;;6216417;23;20012;-65
2022/01/25 01:00:11;;;;;;;2.92;2.08;;;2.10;99.90;;;;;;6216742;23;20009;-65
2022/01/25 01:02:38;;;;;;;4.97;2.28;;;2.10;99.90;;;;;;6216334;23;20004;-65
2022/01/25 01:05:05;;;;;;;5.55;2.67;;;2.00;99.90;;;;;;6216398;23;20009;-65
2022/01/25 01:07:32;;;;;;;4.43;2.13;;;2.00;99.90;;;;;;6216536;23;20005;-65
2022/01/25 01:10:00;;;;;;;4.93;2.10;;;2.00;99.90;;;;;;6216104;23;20040;-65
2022/01/25 01:29:14;;;;;;;4.90;1.63;;;2.00;99.90;;;;;;6216119;23;20012;-65
2022/01/25 01:34:59;;;;;;;4.90;2.28;;;2.00;99.90;;;;;;6215453;23;20514;-65
2022/01/25 01:40:20;;;;;;;5.70;2.47;;;2.00;99.90;;;;;;6216095;23;20016;-65
2022/01/25 01:43:11;;;;;;;4.90;1.70;;;2.00;99.90;;;;;;6216409;23;20090;-65
2022/01/25 01:48:26;;;;;;;6.47;2.10;;;2.00;99.90;;;;;;6216446;23;20028;-66
2022/01/25 01:50:54;;;;;;;4.03;2.22;;;2.00;99.90;;;;;;6215930;23;20557;-66
2022/01/25 01:53:21;;;;;;;9.70;2.10;;;2.00;99.90;;;;;;6216398;23;20468;-66
2022/01/25 01:55:48;;;;;;;4.53;2.08;;;2.00;99.90;;;;;;6216039;23;20086;-66
2022/01/25 01:58:15;;;;;;;6.85;2.40;;;1.90;99.90;;;;;;6189396;23;20009;-66
2022/01/25 02:00:45;;;;;;;7.57;1.98;;;1.90;99.90;;;;;;6215963;23;20009;-66
2022/01/25 02:03:18;;;;;;;8.93;2.63;;;1.90;99.90;;;;;;6215563;23;20009;-66
2022/01/25 02:05:51;;;;;;;4.90;2.60;;;1.90;99.90;;;;;;6215915;23;20013;-66
2022/01/25 02:08:18;;;;;;;7.10;1.83;;;1.90;99.90;;;;;;6215821;23;20501;-66
2022/01/25 02:10:48;;;;;;;5.15;2.33;;;1.90;99.90;;;;;;6216000;23;20449;-66
2022/01/25 02:13:15;;;;;;;6.95;2.65;;;1.90;99.90;;;;;;6215760;23;20019;-66
2022/01/25 02:15:45;;;;;;;4.53;2.35;;;1.90;99.90;;;;;;6216277;23;20005;-66
2022/01/25 02:23:51;;;;;;;5.05;2.17;;;1.90;99.90;;;;;;6215759;23;20438;-66
2022/01/25 02:26:17;;;;;;;7.45;2.17;;;1.90;99.90;;;;;;6215579;23;20009;-66
2022/01/25 02:28:46;;;;;;;5.00;2.42;;;1.90;99.90;;;;;;6189579;23;20435;-66
2022/01/25 02:31:15;;;;;;;5.85;2.38;;;1.90;99.90;;;;;;6215749;23;20067;-66
2022/01/25 02:33:46;;;;;;;4.60;2.25;;;1.80;99.90;;;;;;6217764;23;20058;-66
2022/01/25 02:36:22;;;;;;;6.38;2.40;;;1.80;99.90;;;;;;6217828;23;20011;-66
2022/01/25 02:38:49;;;;;;;7.15;2.80;;;1.80;99.90;;;;;;6218126;23;20370;-66
2022/01/25 02:41:15;;;;;;;7.93;2.33;;;1.80;99.90;;;;;;6217754;23;20058;-66
2022/01/25 02:43:46;;;;;;;4.68;2.67;;;1.90;99.90;;;;;;6217579;23;20017;-66
2022/01/25 02:49:00;;;;;;;6.95;2.10;;;1.80;99.90;;;;;;6217734;23;20000;-66
2022/01/25 02:51:34;;;;;;;6.82;2.55;;;1.80;99.90;;;;;;6217515;23;20015;-66
2022/01/25 02:54:03;;;;;;;4.20;2.20;;;1.80;99.90;;;;;;6217703;23;20011;-66
2022/01/25 02:56:31;;;;;;;5.47;2.40;;;1.80;99.90;;;;;;6217414;23;20001;-67
2022/01/25 02:59:06;;;;;;;5.80;2.60;;;1.80;99.90;;;;;;6217558;23;20143;-66
2022/01/25 03:01:36;;;;;;;6.10;2.65;;;1.80;99.90;;;;;;6217598;23;20028;-66
2022/01/25 03:04:04;;;;;;;6.78;2.58;;;1.80;99.90;;;;;;6217830;23;20016;-66
2022/01/25 03:06:32;;;;;;;9.60;3.17;;;1.80;99.90;;;;;;6217552;23;19997;-66
2022/01/25 03:08:59;;;;;;;7.75;2.80;;;1.70;99.90;;;;;;6217572;23;20008;-66
2022/01/25 03:11:26;;;;;;;8.32;2.80;;;1.70;99.90;;;;;;6217933;23;20051;-66
2022/01/25 03:13:56;;;;;;;6.03;2.42;;;1.70;99.90;;;;;;6217343;23;20008;-66
2022/01/25 03:16:32;;;;;;;3.97;2.42;;;1.70;99.90;;;;;;6217513;23;20004;-66
2022/01/25 03:19:04;;;;;;;6.00;2.88;;;1.70;99.90;;;;;;6217471;23;20362;-66
2022/01/25 03:23:58;;;;;;;7.25;2.60;;;1.80;99.90;;;;;;6217158;23;20019;-66
2022/01/25 03:26:26;;;;;;;6.43;2.15;;;1.70;99.90;;;;;;6217264;23;20323;-66
2022/01/25 03:28:54;;;;;;;6.45;2.75;;;1.70;99.90;;;;;;6217192;23;20008;-66
2022/01/25 03:31:20;;;;;;;5.45;2.20;;;1.70;99.90;;;;;;6218218;23;20013;-66
2022/01/25 03:33:47;;;;;;;5.85;1.95;;;1.70;99.90;;;;;;6217382;23;20011;-66
2022/01/25 03:36:15;;;;;;;9.10;2.38;;;1.70;99.90;;;;;;6217192;23;20079;-66
2022/01/25 03:38:42;;;;;;;4.13;1.90;;;1.70;99.90;;;;;;6217599;23;20015;-66
2022/01/25 03:41:12;;;;;;;5.95;3.30;;;1.70;99.90;;;;;;6217209;23;20020;-66
2022/01/25 03:43:39;;;;;;;6.10;2.58;;;1.70;99.90;;;;;;6216650;23;20012;-66
2022/01/25 03:51:01;;;;;;;5.35;2.53;;;1.70;99.90;;;;;;6217014;23;20032;-66
2022/01/25 03:53:28;;;;;;;4.10;2.40;;;1.70;99.90;;;;;;6217138;23;20031;-66
2022/01/25 03:55:55;;;;;;;16.40;2.40;;;1.70;99.90;;;;;;6217431;23;20005;-66
2022/01/25 03:58:21;;;;;;;5.72;2.70;;;1.70;99.90;;;;;;6217022;23;20011;-66
2022/01/25 04:00:49;;;;;;;7.55;2.47;;;1.70;99.90;;;;;;6216976;23;20051;-66
2022/01/25 04:03:29;;;;;;;3.50;2.00;;;1.70;99.90;;;;;;6217176;23;20342;-66
2022/01/25 04:05:57;;;;;;;7.95;2.00;;;1.70;99.90;;;;;;6216903;23;20012;-65
2022/01/25 04:08:27;;;;;;;4.25;2.30;;;1.70;99.90;;;;;;6217218;23;20008;-66
2022/01/25 04:10:54;;;;;;;6.28;2.42;;;1.70;99.90;;;;;;6217011;23;20004;-66
2022/01/25 04:13:21;;;;;;;7.80;2.20;;;1.70;99.90;;;;;;6216831;23;20493;-66
2022/01/25 04:15:49;;;;;;;4.60;2.03;;;1.70;99.90;;;;;;6216916;23;20015;-66
2022/01/25 04:20:57;;;;;;;4.90;2.15;;;1.70;99.90;;;;;;6216699;23;20079;-66
2022/01/25 04:26:08;;;;;;;;;;;1.60;99.90;;;;;;6217100;23;20331;-66
2022/01/25 04:28:34;;;;;;;11.60;2.20;;;1.60;99.90;;;;;;6216659;23;19930;-65
2022/01/25 04:31:01;;;;;;;3.58;1.85;;;1.70;99.90;;;;;;6217467;23;20008;-66
2022/01/25 04:33:39;;;;;;;4.97;2.10;;;1.60;99.90;;;;;;6216622;23;20431;-66
2022/01/25 04:49:46;;;;;;;5.60;2.67;;;1.50;99.90;;;;;;6216468;23;20025;-66
2022/01/25 04:52:18;;;;;;;5.63;2.08;;;1.50;99.90;;;;;;6216560;23;20008;-66
2022/01/25 05:02:34;;;;;;;5.40;2.70;;;1.50;99.90;;;;;;6216750;23;20059;-66
2022/01/25 05:05:09;;;;;;;5.60;2.38;;;1.50;99.90;;;;;;6216361;23;20039;-66
2022/01/25 05:07:57;;;;;;;4.85;2.47;;;1.60;99.90;;;;;;6216216;23;20051;-66
2022/01/25 05:10:24;;;;;;;7.47;2.72;;;1.50;99.90;;;;;;6217061;23;20008;-82
2022/01/25 05:13:10;;;;;;;5.45;1.38;;;1.60;99.90;;;;;;6170222;23;20009;-85
2022/01/25 05:18:35;;;;;;;7.75;3.05;;;1.50;99.90;;;;;;6216944;23;20012;-85
2022/01/25 05:23:48;;;;;;;7.72;2.72;;;1.50;99.90;;;;;;6190447;23;20020;-86
2022/01/25 05:26:15;;;;;;;9.60;2.78;;;1.60;99.90;;;;;;6154301;23;20013;-82
2022/01/25 05:28:41;;;;;;;5.35;2.63;;;1.60;99.90;;;;;;6155059;23;20017;-82
2022/01/25 05:31:08;;;;;;;7.78;2.88;;;1.60;99.90;;;;;;6106274;23;20010;-84
2022/01/25 05:33:35;;;;;;;12.00;3.17;;;1.60;99.90;;;;;;6130362;23;20096;-82
2022/01/25 05:36:01;;;;;;;7.90;2.17;;;1.60;99.90;;;;;;6105823;23;20001;-85
2022/01/25 05:38:28;;;;;;;6.47;2.78;;;1.60;99.90;;;;;;6106214;23;20020;-85
2022/01/25 05:41:04;;;;;;;5.88;1.92;;;1.60;99.90;;;;;;6130050;23;20386;-86
2022/01/25 05:48:29;;;;;;;9.27;2.42;;;1.60;99.90;;;;;;6130076;23;20037;-85
2022/01/25 05:50:57;;;;;;;5.80;2.20;;;1.60;99.90;;;;;;6154932;23;20009;-85
2022/01/25 05:53:24;;;;;;;5.60;2.25;;;1.60;99.90;;;;;;6105958;23;20001;-82
2022/01/25 05:55:54;;;;;;;5.07;2.75;;;1.60;99.90;;;;;;6105699;23;20017;-84
2022/01/25 05:58:21;;;;;;;11.38;3.22;;;1.70;99.90;;;;;;6163533;23;20008;-78
2022/01/25 06:00:48;;;;;;;6.32;2.60;;;1.70;99.90;;;;;;6215343;23;20015;-78
2022/01/25 06:03:14;;;;;;;9.30;2.72;;;1.70;99.90;;;;;;6188683;23;20035;-78
2022/01/25 06:05:44;;;;;;;7.95;2.65;;;1.70;99.90;;;;;;6189312;23;20434;-78
2022/01/25 06:08:14;;;;;;;3.30;2.40;;;1.70;99.90;;;;;;6215638;23;20004;-79
2022/01/25 06:10:40;;;;;;;8.05;3.08;;;1.70;99.90;;;;;;6216085;23;20032;-78
2022/01/25 06:13:07;;;;;;;7.45;2.88;;;1.70;99.90;;;;;;6216063;23;20013;-78
2022/01/25 06:15:33;;;;;;;9.38;3.25;;;1.70;99.90;;;;;;6216416;23;19997;-79
2022/01/25 06:18:00;;;;;;;8.60;2.75;;;1.60;99.90;;;;;;6215827;23;20012;-77
2022/01/25 06:20:28;;;;;;;6.55;2.97;;;1.70;99.90;;;;;;6216034;23;20028;-78
2022/01/25 06:22:56;;;;;;;6.40;2.78;;;1.60;99.90;;;;;;6215914;23;20071;-77
2022/01/25 06:25:25;;;;;;;6.97;2.58;;;1.70;99.90;;;;;;6216056;23;20359;-79
2022/01/25 06:27:52;;;;;;;7.15;2.78;;;1.70;99.90;;;;;;6189174;23;20091;-77
2022/01/25 06:30:21;;;;;;;7.00;2.97;;;1.70;99.90;;;;;;6215997;23;20446;-77
2022/01/25 06:32:48;;;;;;;5.63;2.97;;;1.80;99.90;;;;;;6215985;23;20024;-78
2022/01/25 06:35:16;;;;;;;6.20;2.47;;;1.80;99.90;;;;;;6215965;23;20005;-78
2022/01/25 06:37:44;;;;;;;8.02;2.50;;;1.80;99.90;;;;;;6215898;23;20430;-77
2022/01/25 06:40:11;;;;;;;9.88;3.60;;;1.80;99.90;;;;;;6216042;23;20008;-77
2022/01/25 06:42:39;;;;;;;9.27;3.35;;;1.80;99.90;;;;;;6216609;23;20004;-77
2022/01/25 06:45:13;;;;;;;6.43;3.33;;;1.80;99.90;;;;;;6215992;23;20013;-79
2022/01/25 06:47:40;;;;;;;;;;;1.90;99.90;;;;;;6216507;23;20000;-77
2022/01/25 06:50:07;;;;;;;7.50;3.33;;;1.90;99.90;;;;;;6216468;23;19980;-80
2022/01/25 06:52:37;;;;;;;6.25;2.72;;;2.00;99.90;;;;;;6189660;23;20083;-79
2022/01/25 06:55:08;;;;;;;8.65;2.88;;;2.00;99.90;;;;;;6164905;23;20005;-80
2022/01/25 06:57:36;;;;;;;5.70;2.78;;;2.10;99.90;;;;;;6165384;23;20009;-80
2022/01/25 07:00:09;;;;;;;7.40;2.90;;;2.20;99.90;;;;;;6165056;23;20016;-80
2022/01/25 07:02:36;;;;;;;9.80;2.90;;;2.30;99.90;;;;;;6190143;23;20004;-81
2022/01/25 07:05:03;;;;;;;10.65;3.58;;;2.40;99.90;;;;;;6189536;23;20062;-82
2022/01/25 07:07:30;;;;;;;8.02;2.70;;;2.40;99.90;;;;;;6165401;23;20040;-81
2022/01/25 07:09:57;;;;;;;7.43;2.75;;;2.50;99.90;;;;;;6189784;23;20004;-82
2022/01/25 07:12:24;;;;;;;7.53;2.80;;;2.60;99.90;;;;;;6164912;23;20446;-80
2022/01/25 07:14:50;;;;;;;10.23;3.92;;;2.60;99.90;;;;;;6216084;23;20009;-82
2022/01/25 07:17:17;;;;;;;4.90;2.60;;;2.70;99.90;;;;;;6190237;23;20009;-82
2022/01/25 07:19:44;;;;;;;9.93;3.47;;;2.70;99.90;;;;;;6190785;23;20368;-81
2022/01/25 07:22:10;;;;;;;9.50;3.70;;;2.80;99.90;;;;;;6191516;23;20009;-81
2022/01/25 07:24:37;;;;;;;10.85;2.90;;;2.90;99.90;;;;;;6191735;23;20074;-81
2022/01/25 07:27:04;;;;;;;4.32;2.33;;;2.90;99.90;;;;;;6191446;23;20012;-81
2022/01/25 07:29:30;;;;;;;7.55;2.80;;;3.00;99.90;;;;;;6192007;23;20016;-80
2022/01/25 07:31:59;;;;;;;9.00;3.08;;;3.20;99.90;;;;;;6218212;23;20043;-83
2022/01/25 07:34:27;;;;;;;7.53;2.50;;;3.30;99.90;;;;;;6191497;23;20004;-82
2022/01/25 07:36:53;;;;;;;7.80;2.38;;;3.30;99.90;;;;;;6191420;23;20067;-82
2022/01/25 07:39:20;;;;;;;7.93;2.55;;;3.40;99.90;;;;;;6166647;23;20426;-82
2022/01/25 07:41:47;;;;;;;11.18;3.00;;;3.40;99.90;;;;;;6166599;23;20013;-82
2022/01/25 07:44:14;;;;;;;4.35;2.45;;;3.50;99.90;;;;;;6190995;23;20059;-81
2022/01/25 07:46:41;;;;;;;3.55;2.45;;;3.60;99.90;;;;;;6166423;23;20062;-81
2022/01/25 07:49:07;;;;;;;5.57;2.30;;;3.70;99.90;;;;;;6217998;23;20014;-80
2022/01/25 07:51:35;;;;;;;5.63;2.70;;;3.70;99.90;;;;;;6191418;23;20054;-80
2022/01/25 07:54:02;;;;;;;7.45;2.20;;;3.80;99.90;;;;;;6217251;23;20000;-80
2022/01/25 07:56:29;;;;;;;5.30;2.15;;;3.90;99.90;;;;;;6191203;23;20375;-81
2022/01/25 07:58:55;;;;;;;7.55;2.28;;;3.90;99.90;;;;;;6166397;23;20008;-80
2022/01/25 08:01:22;;;;;;;5.38;2.08;;;3.90;99.90;;;;;;6190879;23;20005;-80
2022/01/25 08:03:49;;;;;;;11.82;2.38;;;4.00;99.90;;;;;;6165686;23;20017;-81
2022/01/25 08:06:24;;;;;;;5.30;1.98;;;4.00;99.90;;;;;;6162945;23;20431;-80
2022/01/25 08:08:52;;;;;;;5.70;1.92;;;4.10;99.90;;;;;;6165369;23;20059;-80
2022/01/25 08:11:21;;;;;;;8.73;2.80;;;4.10;99.90;;;;;;6189635;23;20338;-81
2022/01/25 08:13:49;;;;;;;5.65;2.97;;;4.10;99.90;;;;;;6187814;23;20071;-81
2022/01/25 08:16:17;;;;;;;4.28;2.13;;;4.20;99.90;;;;;;6164428;23;20012;-81
2022/01/25 08:18:44;;;;;;;5.50;2.47;;;4.20;99.90;;;;;;6165328;23;20092;-80
2022/01/25 08:21:11;;;;;;;5.80;2.45;;;4.30;99.90;;;;;;6190282;23;20427;-82
2022/01/25 08:23:40;;;;;;;6.90;2.08;;;4.30;99.90;;;;;;6190441;23;20012;-80
2022/01/25 08:26:07;;;;;;;5.63;2.38;;;4.30;99.90;;;;;;6216823;23;20371;-80
2022/01/25 08:28:34;;;;;;;5.95;2.40;;;4.40;99.90;;;;;;6165559;23;20017;-83
2022/01/25 08:31:00;;;;;;;3.95;2.33;;;4.40;99.90;;;;;;6165295;23;20104;-81
2022/01/25 08:33:27;;;;;;;7.90;2.22;;;4.50;99.90;;;;;;6190108;23;20031;-82
2022/01/25 08:35:55;;;;;;;4.97;1.88;;;4.50;99.90;;;;;;6216922;23;20031;-80
2022/01/25 08:38:21;;;;;;;6.90;2.63;;;4.60;99.90;;;;;;6190238;23;20012;-80
2022/01/25 08:40:54;;;;;;;9.00;2.50;;;4.60;99.90;;;;;;6217342;23;20062;-80
2022/01/25 08:43:22;;;;;;;5.03;2.05;;;4.70;99.90;;;;;;6190102;23;20095;-80
2022/01/25 08:45:48;;;;;;;10.68;2.90;;;4.70;99.90;;;;;;6191790;23;20005;-81
2022/01/25 08:48:15;;;;;;;5.07;2.03;;;4.70;99.90;;;;;;6224043;23;20084;-80
2022/01/25 08:50:41;;;;;;;7.85;2.28;;;4.70;99.90;;;;;;6169313;23;20015;-82
2022/01/25 08:53:10;;;;;;;9.32;3.00;;;4.70;99.90;;;;;;6190521;23;20009;-82
2022/01/25 08:55:37;;;;;;;6.05;2.42;;;4.80;99.90;;;;;;6190259;23;20031;-83
2022/01/25 08:58:07;;;;;;;8.63;2.70;;;4.80;99.90;;;;;;6216913;23;20035;-81
2022/01/25 09:00:34;;;;;;;3.88;2.08;;;4.80;99.90;;;;;;6190593;23;20004;-83
2022/01/25 09:03:04;;;;;;;6.55;2.38;;;4.80;99.90;;;;;;6190461;23;20009;-82
2022/01/25 09:05:31;;;;;;;5.07;2.15;;;4.90;99.90;;;;;;6165687;23;20016;-81
2022/01/25 09:07:59;;;;;;;7.57;2.60;;;4.90;99.90;;;;;;6165447;23;20005;-82
2022/01/25 09:10:26;;;;;;;6.43;2.38;;;5.00;99.90;;;;;;6216974;23;20014;-82
2022/01/25 09:12:54;;;;;;;4.40;2.05;;;5.00;99.90;;;;;;6190103;23;20059;-82
2022/01/25 09:15:22;;;;;;;3.88;1.55;;;5.00;99.90;;;;;;6190076;23;20514;-82
2022/01/25 09:17:49;;;;;;;4.93;2.10;;;5.00;99.90;;;;;;6216326;23;20001;-81
2022/01/25 09:20:20;;;;;;;4.32;2.40;;;5.00;99.90;;;;;;6189728;23;20346;-61
2022/01/25 09:22:47;;;;;;;6.03;2.08;;;5.10;99.90;;;;;;6216694;23;20005;-62
2022/01/25 09:25:14;;;;;;;5.72;2.08;;;5.10;99.90;;;;;;6189587;23;20012;-62
2022/01/25 09:27:41;;;;;;;7.55;2.13;;;5.10;99.90;;;;;;6213393;23;20020;-62
2022/01/25 09:30:08;;;;;;;10.23;2.35;;;5.10;99.90;;;;;;6215894;23;20005;-62
2022/01/25 09:32:34;;;;;;;6.38;2.33;;;5.10;99.90;;;;;;6215601;23;20032;-63
2022/01/25 09:35:00;;;;;;;6.20;2.25;;;5.10;99.90;;;;;;6215738;23;20004;-62
2022/01/25 09:37:27;;;;;;;6.00;2.10;;;5.20;99.90;;;;;;6215657;23;20009;-62
2022/01/25 09:39:53;;;;;;;4.68;2.50;;;5.20;99.90;;;;;;6215842;23;20334;-62
2022/01/25 09:42:21;;;;;;;4.70;2.30;;;5.30;99.90;;;;;;6189249;23;20095;-62
2022/01/25 09:44:48;;;;;;;5.43;2.10;;;5.30;99.90;;;;;;6215880;23;20087;-62
2022/01/25 09:47:15;;;;;;;5.07;1.85;;;5.20;99.90;;;;;;6215488;23;20094;-62
2022/01/25 09:49:41;;;;;;;7.00;2.22;;;5.20;99.90;;;;;;6215640;23;20013;-62
2022/01/25 09:52:08;;;;;;;4.82;2.17;;;5.20;99.90;;;;;;6215682;23;20442;-60
2022/01/25 09:54:36;;;;;;;2.95;1.90;;;5.20;99.90;;;;;;6215683;23;20036;-61
2022/01/25 09:57:04;;;;;;;5.93;2.38;;;5.30;99.90;;;;;;6215289;23;20008;-61
2022/01/25 09:59:31;;;;;;;4.80;1.95;;;5.30;99.90;;;;;;6164390;23;20403;-61
2022/01/25 10:01:57;;;;;;;3.72;2.10;;;5.40;99.90;;;;;;6215524;23;20008;-60
2022/01/25 10:04:37;;;;;;;4.05;2.10;;;5.50;99.90;;;;;;6189172;23;20020;-61
2022/01/25 10:07:04;;;;;;;6.47;2.45;;;5.50;99.90;;;;;;6188917;23;20131;-61
2022/01/25 10:09:32;;;;;;;6.20;2.90;;;5.50;99.90;;;;;;6189549;23;20008;-61
2022/01/25 10:12:19;;;;;;;7.88;2.40;;;5.60;99.90;;;;;;6215645;23;20342;-61
2022/01/25 10:15:06;;;;;;;4.85;2.28;;;5.60;99.90;;;;;;6215554;23;20066;-62
2022/01/25 10:17:34;;;;;;;8.68;2.20;;;5.60;99.90;;;;;;6215483;23;20099;-61
2022/01/25 10:20:01;;;;;;;6.65;3.05;;;5.50;99.90;;;;;;6215631;23;20008;-61
2022/01/25 10:22:35;;;;;;;4.13;2.05;;;5.60;99.90;;;;;;6215525;23;20370;-61
2022/01/25 10:25:02;;;;;;;3.35;2.05;;;5.50;99.90;;;;;;6214785;23;20020;-61
2022/01/25 10:30:16;;;;;;;7.35;2.15;;;5.50;99.90;;;;;;6215600;23;20390;-61
2022/01/25 10:32:43;;;;;;;6.20;2.05;;;5.50;99.90;;;;;;6214855;23;20000;-61
2022/01/25 10:35:16;;;;;;;7.68;2.28;;;5.50;99.90;;;;;;6213864;23;20040;-61
2022/01/25 10:37:43;;;;;;;5.23;2.07;;;5.50;99.90;;;;;;6215852;23;20005;-61
2022/01/25 10:40:11;;;;;;;10.98;3.10;;;5.60;99.90;;;;;;6215586;23;20000;-62
2022/01/25 10:42:38;;;;;;;6.93;2.72;;;5.70;99.90;;;;;;6214721;23;20015;-61
2022/01/25 10:45:19;;;;;;;5.30;2.30;;;5.70;99.90;;;;;;6215897;23;20091;-61
2022/01/25 10:47:50;;;;;;;7.03;2.22;;;5.70;99.90;;;;;;6216046;23;20011;-61
2022/01/25 10:50:18;;;;;;;4.70;2.30;;;5.80;99.90;;;;;;6215612;23;20016;-60
2022/01/25 10:52:47;;;;;;;3.67;2.28;;;5.80;99.90;;;;;;6216129;23;20001;-61
2022/01/25 10:55:16;;;;;;;6.05;2.15;;;5.80;99.90;;;;;;6217760;23;20005;-61
2022/01/25 10:57:57;;;;;;;2.72;1.75;;;5.80;99.90;;;;;;6191015;23;20020;-61
2022/01/25 11:00:29;;;;;;;5.78;2.38;;;5.80;99.90;;;;;;6217599;23;20012;-61
2022/01/25 11:02:56;;;;;;;6.97;2.38;;;5.80;99.90;;;;;;6217168;23;20071;-61
2022/01/25 11:05:23;;;;;;;7.50;2.95;;;5.90;99.90;;;;;;6217676;23;20005;-61
2022/01/25 11:07:50;;;;;;;11.65;2.60;;;5.90;99.90;;;;;;6191388;23;20012;-61
2022/01/25 11:10:20;;;;;;;4.45;2.47;;;5.90;99.90;;;;;;6217525;23;20012;-61
2022/01/25 11:13:02;;;;;;;5.82;2.08;;;5.90;99.90;;;;;;6217854;23;20009;-61
2022/01/25 11:15:29;;;;;;;6.25;2.28;;;6.00;99.90;;;;;;6217477;23;20461;-61
2022/01/25 11:17:56;;;;;;;8.05;3.63;;;5.90;99.90;;;;;;6190862;23;20134;-62
2022/01/25 11:20:23;;;;;;;8.00;3.30;;;6.00;99.90;;;;;;6217396;23;20346;-61
2022/01/25 11:22:51;;;;;;;5.57;2.45;;;6.00;99.90;;;;;;6190963;23;20059;-61
2022/01/25 11:25:23;;;;;;;7.80;2.50;;;6.10;99.90;;;;;;6217317;23;20320;-61
2022/01/25 11:27:51;;;;;;;6.63;2.08;;;6.10;99.90;;;;;;6217139;23;20111;-61
2022/01/25 11:30:20;;;;;;;10.88;3.20;;;6.10;99.90;;;;;;6217760;23;20012;-61
2022/01/25 11:32:51;;;;;;;7.45;2.47;;;6.20;99.90;;;;;;6217243;23;20075;-61
2022/01/25 11:35:23;;;;;;;8.60;2.53;;;6.10;99.90;;;;;;6190716;23;20009;-61
2022/01/25 11:37:56;;;;;;;9.38;3.58;;;6.20;99.90;;;;;;6217102;23;20031;-61
2022/01/25 11:40:33;;;;;;;4.47;1.90;;;6.20;99.90;;;;;;6217112;23;20020;-61
2022/01/25 11:43:13;;;;;;;6.03;2.33;;;6.10;99.90;;;;;;6217505;23;20052;-61
2022/01/25 11:45:44;;;;;;;18.63;3.40;;;6.20;99.90;;;;;;6217591;23;20016;-61
2022/01/25 11:48:11;;;;;;;8.13;2.63;;;6.20;99.90;;;;;;6217217;23;20377;-61
2022/01/25 11:50:43;;;;;;;4.53;2.00;;;6.20;99.90;;;;;;6217176;23;20001;-61
2022/01/25 11:53:17;;;;;;;5.80;2.60;;;6.20;99.90;;;;;;6217124;23;20001;-61
2022/01/25 11:55:48;;;;;;;6.65;2.33;;;6.20;99.90;;;;;;6217420;23;20491;-61
2022/01/25 11:58:30;;;;;;;4.72;2.00;;;6.20;99.90;;;;;;6217403;23;20434;-61
2022/01/25 12:01:03;;;;;;;3.10;1.58;;;6.30;99.90;;;;;;6216703;23;20087;-61
2022/01/25 12:03:46;;;;;;;3.22;1.77;;;6.30;99.90;;;;;;6216900;23;20485;-61
2022/01/25 12:06:31;;;;;;;5.63;2.53;;;6.30;99.90;;;;;;6216479;23;20135;-61
2022/01/25 12:09:41;;;;;;;5.85;2.80;;;6.30;99.90;;;;;;6217400;23;20013;-61
2022/01/25 12:12:15;;;;;;;7.75;3.30;;;6.40;99.90;;;;;;6217246;23;20079;-61
2022/01/25 18:37:15;;;;;;;14.45;6.82;;;4.50;99.90;;;;;;6200499;22;20143;-70
2022/01/25 18:39:42;;;;;;;17.13;6.32;;;4.60;99.90;;;;;;6189252;23;20012;-66
2022/01/25 18:42:09;;;;;;;17.63;7.22;;;4.60;99.90;;;;;;6215831;23;20411;-67
2022/01/25 18:44:35;;;;;;;23.50;9.20;;;4.70;99.90;;;;;;6189178;23;20020;-66
2022/01/25 18:47:01;;;;;;;38.30;10.00;;;4.70;99.90;;;;;;6215591;23;20004;-67
2022/01/25 18:49:29;;;;;;;17.38;6.28;;;4.80;99.90;;;;;;6215631;23;20011;-68
2022/01/25 18:51:56;;;;;;;13.23;5.80;;;4.80;99.90;;;;;;6215654;23;20012;-67
2022/01/25 18:54:22;;;;;;;18.38;6.70;;;4.80;99.90;;;;;;6215546;23;20032;-66
2022/01/25 18:56:49;;;;;;;13.40;5.78;;;4.80;99.90;;;;;;6215727;23;20001;-67
2022/01/25 18:59:17;;;;;;;13.68;5.70;;;4.80;99.90;;;;;;6215579;23;20004;-67
2022/01/25 19:01:44;;;;;;;10.30;5.28;;;4.80;99.90;;;;;;6215963;23;20004;-67
2022/01/25 19:04:11;;;;;;;15.95;6.13;;;4.70;99.90;;;;;;6215545;23;20019;-67
2022/01/25 19:06:37;;;;;;;12.10;6.07;;;4.70;99.90;;;;;;6215306;23;20013;-67
2022/01/25 19:09:06;;;;;;;14.80;7.97;;;4.70;99.90;;;;;;6215658;23;20445;-67
2022/01/25 19:11:34;;;;;;;22.92;8.07;;;4.60;99.90;;;;;;6215922;23;20374;-66
2022/01/25 19:14:01;;;;;;;14.95;6.97;;;4.60;99.90;;;;;;6189526;23;20009;-67
2022/01/25 19:16:27;;;;;;;16.00;7.40;;;4.60;99.90;;;;;;6217586;23;20331;-67
2022/01/25 19:18:54;;;;;;;27.30;8.20;;;4.40;99.90;;;;;;6217302;23;20346;-67
2022/01/25 19:21:23;;;;;;;22.73;8.90;;;4.40;99.90;;;;;;6217444;23;20015;-66
2022/01/25 19:23:50;;;;;;;22.63;9.30;;;4.30;99.90;;;;;;6217254;23;20016;-68
2022/01/25 19:26:17;;;;;;;24.73;8.65;;;4.30;99.90;;;;;;6217517;23;20000;-68
2022/01/25 19:28:44;;;;;;;23.20;10.18;;;4.20;99.90;;;;;;6190788;23;20406;-67
2022/01/25 19:31:10;;;;;;;30.25;10.85;;;4.20;99.90;;;;;;6217293;23;20011;-67
2022/01/25 19:33:38;;;;;;;22.85;8.80;;;4.20;99.90;;;;;;6217289;23;20012;-68
2022/01/25 19:36:04;;;;;;;24.20;9.57;;;4.20;99.90;;;;;;6217052;23;20004;-68
2022/01/25 19:38:31;;;;;;;23.75;7.93;;;4.20;99.90;;;;;;6217739;23;20016;-67
2022/01/25 19:41:01;;;;;;;17.73;7.00;;;4.10;99.90;;;;;;6217128;23;20078;-66
2022/01/25 19:43:27;;;;;;;27.23;9.48;;;4.00;99.90;;;;;;6190568;23;20027;-66
2022/01/25 19:45:54;;;;;;;25.38;9.07;;;4.00;99.90;;;;;;6217058;23;20004;-67
2022/01/25 19:48:20;;;;;;;25.25;9.60;;;3.90;99.90;;;;;;6217142;23;20008;-67
2022/01/25 19:50:47;;;;;;;29.75;9.48;;;3.90;99.90;;;;;;6217212;23;20028;-66
2022/01/25 19:53:17;;;;;;;15.77;7.72;;;3.80;99.90;;;;;;6217037;23;20005;-66
2022/01/25 19:55:47;;;;;;;18.45;8.43;;;3.80;99.90;;;;;;6216970;23;20009;-67
2022/01/25 19:58:13;;;;;;;23.77;9.32;;;3.70;99.90;;;;;;6216975;23;20001;-66
2022/01/25 20:00:42;;;;;;;29.23;11.95;;;3.60;99.90;;;;;;6216880;23;20331;-67
2022/01/25 20:03:09;;;;;;;25.95;10.48;;;3.60;99.90;;;;;;6216922;23;20005;-66
2022/01/25 20:05:36;;;;;;;24.25;10.38;;;3.50;99.90;;;;;;6217302;23;20008;-66
2022/01/25 20:08:04;;;;;;;30.40;13.02;;;3.50;99.90;;;;;;6216741;23;20504;-66
2022/01/25 20:10:35;;;;;;;36.45;12.45;;;3.50;99.90;;;;;;6217269;23;20001;-68
2022/01/25 20:13:01;;;;;;;31.15;11.73;;;3.50;99.90;;;;;;6217373;23;20004;-67
2022/01/25 20:15:28;;;;;;;31.05;11.63;;;3.60;99.90;;;;;;6190275;23;20012;-67
2022/01/25 20:17:54;;;;;;;28.77;11.32;;;3.50;99.90;;;;;;6216804;23;20461;-67
2022/01/25 20:20:28;;;;;;;24.42;10.00;;;3.60;99.90;;;;;;6216315;23;19997;-68
2022/01/25 20:23:05;;;;;;;29.40;9.32;;;3.60;99.90;;;;;;6216948;23;20381;-68
2022/01/25 20:25:52;;;;;;;26.92;10.10;;;3.60;99.90;;;;;;6189893;23;20465;-68
2022/01/25 20:28:24;;;;;;;25.52;9.57;;;3.60;99.90;;;;;;6216714;23;20005;-67
2022/01/25 20:31:06;;;;;;;27.85;9.27;;;3.60;99.90;;;;;;6216770;23;20330;-68
2022/01/25 20:33:39;;;;;;;28.02;9.55;;;3.50;99.90;;;;;;6190344;23;20088;-68
2022/01/25 20:36:06;;;;;;;24.67;9.55;;;3.50;99.90;;;;;;6216785;23;20019;-67
2022/01/25 20:38:33;;;;;;;24.00;9.85;;;3.50;99.90;;;;;;6217573;23;20008;-68
2022/01/25 20:41:01;;;;;;;20.40;9.05;;;3.60;99.90;;;;;;6216695;23;20005;-68
2022/01/25 20:43:29;;;;;;;24.45;8.05;;;3.60;99.90;;;;;;6216674;23;20009;-67
2022/01/25 20:45:57;;;;;;;18.50;8.00;;;3.60;99.90;;;;;;6216659;23;20012;-67
2022/01/25 20:48:27;;;;;;;16.58;6.63;;;3.60;99.90;;;;;;6216564;23;20434;-67
2022/01/25 20:50:55;;;;;;;18.30;7.50;;;3.60;99.90;;;;;;6216992;23;20004;-68
2022/01/25 20:53:25;;;;;;;24.60;8.10;;;3.60;99.90;;;;;;6216591;23;20492;-68
2022/01/25 20:55:53;;;;;;;21.52;7.95;;;3.60;99.90;;;;;;6216647;23;20012;-67
2022/01/25 20:58:20;;;;;;;18.42;6.70;;;3.60;99.90;;;;;;6216824;23;20068;-67
2022/01/25 21:00:48;;;;;;;15.88;6.05;;;3.70;99.90;;;;;;6216462;23;20059;-67
2022/01/25 21:03:23;;;;;;;16.52;6.07;;;3.70;99.90;;;;;;6216461;23;20001;-67
2022/01/25 21:08:37;;;;;;;12.32;6.10;;;3.70;99.90;;;;;;6216391;23;20005;-67
2022/01/25 21:11:05;;;;;;;13.32;5.32;;;3.70;99.90;;;;;;6216528;23;20011;-67
2022/01/25 21:13:34;;;;;;;12.93;4.88;;;3.70;99.90;;;;;;6189937;23;20078;-67
2022/01/25 21:16:03;;;;;;;11.52;5.00;;;3.70;99.90;;;;;;6189044;23;20007;-67